Time;durP1;ratioP1;P1;durP2;ratioP2;P2;SDS_P1;SDS_P2;PMS_P1;PMS_P2;Temp;Humidity;BMP_temperature;BMP_pressure;BME280_temperature;BME280_humidity;BME280_pressure;Samples;Min_cycle;Max_cycle;Signal;HPM_P1;HPM_P2
2022/11/24 00:02:59;;;;;;;10.70;5.00;;;;;;;8.40;77.21;99479.25;10340641;28;20050;-91
2022/11/24 00:08:01;;;;;;;12.70;5.18;;;;;;;8.45;77.75;99484.91;10331388;28;20046;-89
2022/11/24 00:13:02;;;;;;;14.60;4.60;;;;;;;8.43;77.02;99478.06;10334026;28;20488;-88
2022/11/24 00:18:04;;;;;;;11.32;4.22;;;;;;;8.40;77.27;99489.13;10332977;28;20039;-88
2022/11/24 00:23:06;;;;;;;9.93;4.45;;;;;;;8.38;77.82;99491.16;10326313;28;20125;-88
2022/11/24 00:28:08;;;;;;;11.50;4.00;;;;;;;8.36;77.41;99504.72;10330698;28;20133;-87
2022/11/24 00:33:09;;;;;;;12.02;4.28;;;;;;;8.42;78.25;99501.34;10307383;23;20311;-62
2022/11/24 00:38:11;;;;;;;17.30;4.20;;;;;;;8.46;77.55;99496.47;10381391;28;20057;-62
2022/11/24 00:43:12;;;;;;;13.18;4.05;;;;;;;8.45;78.16;99492.97;10383853;28;20038;-62
2022/11/24 00:48:14;;;;;;;13.98;3.28;;;;;;;8.45;77.93;99509.03;10391163;28;20038;-62
2022/11/24 00:53:15;;;;;;;13.02;3.53;;;;;;;8.40;78.06;99514.06;10381637;28;20127;-61
2022/11/24 00:58:16;;;;;;;11.25;4.20;;;;;;;8.38;78.31;99518.75;10348024;28;20057;-62
2022/11/24 01:03:19;;;;;;;15.95;3.85;;;;;;;8.34;79.01;99515.63;10352026;28;20050;-62
2022/11/24 01:08:20;;;;;;;12.93;3.00;;;;;;;8.40;78.98;99529.28;10357105;28;20050;-62
2022/11/24 01:13:22;;;;;;;11.95;2.78;;;;;;;8.41;79.10;99533.63;10348150;28;20046;-62
2022/11/24 01:18:23;;;;;;;11.15;2.58;;;;;;;8.40;79.25;99540.84;10347013;28;20299;-62
2022/11/24 01:23:24;;;;;;;11.52;2.30;;;;;;;8.43;79.24;99556.59;10339435;28;20046;-62
2022/11/24 01:28:26;;;;;;;15.43;4.13;;;;;;;8.47;79.07;99552.53;10349842;28;20057;-63
2022/11/24 01:33:27;;;;;;;13.65;2.90;;;;;;;8.45;79.15;99553.69;10344798;28;20047;-63
2022/11/24 01:38:29;;;;;;;16.40;3.08;;;;;;;8.43;78.85;99558.41;10347499;28;20042;-63
2022/11/24 01:43:31;;;;;;;13.38;3.13;;;;;;;8.51;78.90;99561.84;10348620;28;20050;-62
2022/11/24 01:48:39;;;;;;;14.60;2.88;;;;;;;8.49;79.34;99560.34;10353891;28;20050;-64
2022/11/24 01:53:44;;;;;;;11.93;4.82;;;;;;;8.52;79.26;99560.81;10426232;23;20104;-63
2022/11/24 02:11:04;;;;;;;10.68;3.03;;;;;;;8.77;78.54;99578.50;10403454;28;20046;-87
2022/11/24 02:16:09;;;;;;;25.63;4.10;;;;;;;8.82;78.73;99576.94;10360198;28;20050;-88
2022/11/24 02:21:13;;;;;;;12.93;4.25;;;;;;;8.92;78.61;99587.38;10417207;28;20049;-87
2022/11/24 02:26:41;;;;;;;15.55;4.07;;;;;;;8.91;78.19;99577.69;10407240;28;20077;-88
2022/11/24 02:31:45;;;;;;;;;;;;;;;8.86;78.66;99583.59;10414410;28;20113;-87
2022/11/24 02:36:49;;;;;;;12.00;3.42;;;;;;;8.88;78.59;99596.81;10401884;28;19932;-90
2022/11/24 02:47:11;;;;;;;17.67;4.55;;;;;;;8.97;78.24;99594.91;10741881;23;20052;-92
2022/11/24 02:52:13;;;;;;;17.08;4.88;;;;;;;8.94;78.54;99588.03;10421483;28;20053;-90
2022/11/24 02:57:14;;;;;;;16.40;3.70;;;;;;;8.99;78.60;99584.81;10423654;28;20038;-88
2022/11/24 03:02:16;;;;;;;13.57;3.78;;;;;;;8.99;78.11;99590.19;10433901;28;20125;-90
2022/11/24 03:07:18;;;;;;;16.83;3.85;;;;;;;9.00;78.32;99591.84;10414450;28;20060;-90
2022/11/24 03:12:19;;;;;;;16.00;3.20;;;;;;;8.99;78.64;99592.88;10416545;28;20142;-89
2022/11/24 03:17:21;;;;;;;15.15;2.65;;;;;;;9.02;78.68;99600.53;10417237;28;20033;-89
2022/11/24 03:22:22;;;;;;;11.93;2.90;;;;;;;9.03;78.84;99594.16;10393242;28;20077;-91
2022/11/24 03:27:24;;;;;;;11.35;3.10;;;;;;;9.07;78.96;99601.63;10378254;28;20062;-90
2022/11/24 03:32:25;;;;;;;20.73;3.08;;;;;;;9.05;78.34;99610.88;10413230;28;20076;-89
2022/11/24 03:37:27;;;;;;;16.48;3.60;;;;;;;9.05;78.59;99616.25;10379029;28;20114;-88
2022/11/24 03:42:28;;;;;;;14.20;3.60;;;;;;;9.09;78.71;99620.22;10371605;28;20049;-88
2022/11/24 03:47:31;;;;;;;6.60;3.25;;;;;;;9.15;78.01;99611.44;10363871;28;20045;-86
2022/11/24 03:52:33;;;;;;;11.70;3.15;;;;;;;9.30;78.18;99606.06;10383496;28;20493;-88
2022/11/24 03:57:34;;;;;;;12.52;3.40;;;;;;;9.36;77.46;99609.84;10365540;28;20144;-88
2022/11/24 04:02:36;;;;;;;12.98;2.80;;;;;;;9.30;77.74;99623.00;10380761;28;20080;-87
2022/11/24 04:07:38;;;;;;;19.02;3.63;;;;;;;9.26;78.53;99629.75;10380856;28;20092;-87
2022/11/24 04:12:42;;;;;;;11.98;3.08;;;;;;;9.30;78.19;99639.09;10370207;28;20054;-89
2022/11/24 04:17:45;;;;;;;14.85;3.72;;;;;;;9.36;77.97;99647.41;10409512;28;20161;-89
2022/11/24 04:22:49;;;;;;;13.20;3.65;;;;;;;9.40;77.97;99646.84;10377201;28;20064;-89
2022/11/24 04:27:52;;;;;;;14.32;3.13;;;;;;;9.43;78.33;99637.59;10402724;28;20046;-89
2022/11/24 04:32:54;;;;;;;17.60;2.70;;;;;;;9.30;78.11;99648.97;10385950;28;20030;-90
2022/11/24 04:37:55;;;;;;;13.15;3.60;;;;;;;9.26;78.13;99651.22;10385970;28;20056;-90
2022/11/24 04:42:57;;;;;;;17.65;4.75;;;;;;;9.19;78.39;99652.13;10375658;28;20077;-89
2022/11/24 04:47:59;;;;;;;17.60;4.15;;;;;;;9.02;78.83;99660.31;10380509;28;20058;-92
2022/11/24 04:53:00;;;;;;;13.05;3.25;;;;;;;9.03;78.81;99670.03;10381016;28;20038;-90
2022/11/24 04:58:02;;;;;;;26.45;4.03;;;;;;;9.09;78.64;99668.47;10383759;28;20061;-90
2022/11/24 05:03:05;;;;;;;13.82;4.13;;;;;;;9.05;78.58;99672.53;10404827;28;20048;-92
2022/11/24 05:08:08;;;;;;;19.67;3.58;;;;;;;9.03;78.81;99682.63;10384588;28;20094;-91
2022/11/24 05:13:13;;;;;;;12.40;3.70;;;;;;;8.97;79.02;99686.84;10386195;28;20026;-89
2022/11/24 05:18:15;;;;;;;13.88;4.00;;;;;;;8.98;79.17;99685.81;10398393;28;20041;-90
2022/11/24 05:23:17;;;;;;;12.32;3.35;;;;;;;9.03;79.08;99680.75;10396804;23;20108;-63
2022/11/24 05:28:19;;;;;;;13.38;3.75;;;;;;;9.10;79.00;99687.06;10386292;28;20544;-63
2022/11/24 05:33:21;;;;;;;16.50;5.05;;;;;;;9.23;78.93;99702.50;10397525;28;20073;-63
2022/11/24 05:38:23;;;;;;;22.40;3.97;;;;;;;9.30;78.79;99705.28;10399251;28;20373;-61
2022/11/24 05:43:24;;;;;;;22.75;4.32;;;;;;;9.35;78.92;99716.31;10407594;28;20492;-60
2022/11/24 05:48:26;;;;;;;25.20;5.18;;;;;;;9.30;78.96;99721.38;10402744;28;20056;-61
2022/11/24 05:53:28;;;;;;;20.92;4.03;;;;;;;9.36;78.89;99728.72;10387175;28;20053;-62
2022/11/24 05:58:29;;;;;;;18.35;4.45;;;;;;;9.40;78.60;99731.84;10354414;28;20133;-61
2022/11/24 06:03:30;;;;;;;20.95;5.50;;;;;;;9.46;78.54;99731.13;10348558;28;20050;-61
2022/11/24 06:08:33;;;;;;;15.73;4.05;;;;;;;9.32;79.12;99735.44;10352369;28;20033;-62
2022/11/24 06:13:34;;;;;;;24.20;5.20;;;;;;;9.33;78.89;99742.47;10350981;28;20137;-62
2022/11/24 06:18:36;;;;;;;24.45;6.35;;;;;;;9.29;79.26;99739.31;10350851;28;20046;-63
2022/11/24 06:23:38;;;;;;;19.33;6.20;;;;;;;9.37;78.89;99740.28;10346081;28;20133;-61
2022/11/24 06:28:39;;;;;;;20.67;4.60;;;;;;;9.47;78.73;99747.03;10349286;28;20073;-61
2022/11/24 06:33:41;;;;;;;19.17;5.07;;;;;;;9.46;78.76;99752.59;10345420;28;20070;-62
2022/11/24 06:38:42;;;;;;;26.85;5.13;;;;;;;9.52;78.72;99754.53;10324956;28;20051;-62
2022/11/24 06:43:44;;;;;;;21.02;5.15;;;;;;;9.64;78.18;99757.59;10327960;28;20162;-62
2022/11/24 06:48:46;;;;;;;27.60;5.40;;;;;;;9.72;78.37;99761.00;10347642;28;20464;-61
2022/11/24 06:53:47;;;;;;;25.73;5.38;;;;;;;9.79;78.39;99758.41;10346875;28;20210;-59
2022/11/24 06:58:51;;;;;;;23.10;5.05;;;;;;;9.83;78.43;99754.34;10348504;28;20573;-60
2022/11/24 07:03:53;;;;;;;21.10;4.07;;;;;;;9.88;78.49;99760.00;10347343;28;20195;-61
2022/11/24 07:08:55;;;;;;;24.83;3.63;;;;;;;9.93;78.88;99759.41;10342281;28;20069;-59
2022/11/24 07:13:56;;;;;;;25.67;4.18;;;;;;;10.00;79.02;99770.25;10342060;28;20077;-59
2022/11/24 07:19:00;;;;;;;23.92;2.53;;;;;;;10.02;79.44;99781.66;10321465;28;20394;-59
2022/11/24 07:24:02;;;;;;;20.27;2.72;;;;;;;10.17;79.23;99784.31;10304606;28;20081;-59
2022/11/24 07:29:04;;;;;;;14.55;2.10;;;;;;;10.18;79.27;99785.97;10300663;28;20126;-59
2022/11/24 07:34:05;;;;;;;15.32;2.35;;;;;;;10.16;79.42;99793.41;10314572;28;20049;-59
2022/11/24 07:39:07;;;;;;;25.27;3.00;;;;;;;10.23;79.18;99795.16;10389494;28;20048;-62
2022/11/24 07:44:08;;;;;;;21.52;2.05;;;;;;;10.21;79.70;99804.38;10378483;28;20125;-60
2022/11/24 07:49:09;;;;;;;18.83;3.20;;;;;;;10.22;79.51;99809.59;10412480;28;20120;-67
2022/11/24 07:54:11;;;;;;;22.27;2.47;;;;;;;10.08;80.02;99816.63;10425273;28;20538;-66
2022/11/24 07:59:12;;;;;;;15.13;2.00;;;;;;;10.01;80.22;99815.72;10421135;28;20076;-68
2022/11/24 08:04:13;;;;;;;22.10;2.13;;;;;;;10.01;80.35;99826.47;10433382;28;20052;-69
2022/11/24 08:09:15;;;;;;;11.70;1.73;;;;;;;10.01;80.51;99830.97;10434974;28;20140;-67
2022/11/24 08:14:16;;;;;;;24.88;3.17;;;;;;;10.00;80.43;99834.72;10433449;28;20092;-68
2022/11/24 08:19:18;;;;;;;9.40;2.00;;;;;;;9.99;80.32;99838.41;10434965;28;20464;-67
2022/11/24 08:24:19;;;;;;;14.27;2.08;;;;;;;10.00;80.63;99829.34;10437507;28;20128;-67
2022/11/24 08:29:20;;;;;;;16.00;2.85;;;;;;;10.06;80.28;99842.84;10432358;28;20135;-67
2022/11/24 08:34:23;;;;;;;16.15;2.47;;;;;;;10.07;80.41;99843.66;10429525;28;20076;-67
2022/11/24 08:39:24;;;;;;;15.05;2.08;;;;;;;10.13;80.43;99856.38;10432726;28;20437;-67
2022/11/24 08:44:27;;;;;;;17.58;1.88;;;;;;;10.15;80.30;99856.16;10433140;28;20678;-67
2022/11/24 08:49:28;;;;;;;12.48;2.45;;;;;;;10.19;80.59;99860.16;10434705;28;20141;-68
2022/11/24 08:54:30;;;;;;;11.50;2.72;;;;;;;10.22;80.47;99852.56;10414141;28;20080;-67
2022/11/24 08:59:32;;;;;;;21.58;2.65;;;;;;;10.27;80.48;99854.72;10429442;28;20052;-67
2022/11/24 09:04:33;;;;;;;19.08;1.42;;;;;;;10.25;80.52;99857.56;10433888;28;20068;-68
2022/11/24 09:09:35;;;;;;;16.80;2.10;;;;;;;10.29;80.25;99872.31;10433651;28;20045;-66
2022/11/24 09:14:37;;;;;;;16.85;2.28;;;;;;;10.34;80.21;99882.50;10434637;28;20672;-67
2022/11/24 09:19:38;;;;;;;18.30;2.33;;;;;;;10.41;79.92;99896.06;10426649;28;20084;-67
2022/11/24 09:24:40;;;;;;;17.33;1.85;;;;;;;10.60;79.80;99890.06;10431240;28;20164;-66
2022/11/24 09:29:41;;;;;;;13.30;1.92;;;;;;;10.79;79.80;99899.41;10431866;28;20073;-67
2022/11/24 09:34:42;;;;;;;12.88;1.85;;;;;;;10.83;79.96;99900.69;10411733;28;20133;-67
2022/11/24 09:39:44;;;;;;;15.23;2.05;;;;;;;10.83;80.25;99910.63;10396795;28;20136;-66
2022/11/24 09:45:03;;;;;;;9.98;1.50;;;;;;;10.89;80.32;99915.25;10431047;28;20076;-67
2022/11/24 09:50:15;;;;;;;6.18;1.10;;;;;;;10.95;79.96;99919.88;10430316;28;20131;-67
2022/11/24 09:55:28;;;;;;;10.95;1.02;;;;;;;11.04;79.66;99926.81;10423047;28;20480;-66
2022/11/24 10:00:30;;;;;;;8.63;0.75;;;;;;;11.03;79.46;99925.13;10430628;28;20216;-67
2022/11/24 10:05:34;;;;;;;7.25;1.05;;;;;;;11.08;79.56;99932.66;10428796;28;20171;-67
2022/11/24 10:10:56;;;;;;;9.48;0.82;;;;;;;11.19;79.05;99942.06;10423135;28;20069;-67
2022/11/24 10:16:14;;;;;;;12.45;1.55;;;;;;;11.31;78.98;99948.63;10425955;28;20057;-68
2022/11/24 10:21:46;;;;;;;8.68;1.17;;;;;;;11.41;78.97;99953.69;10422685;28;20072;-67
2022/11/24 10:26:59;;;;;;;13.23;1.80;;;;;;;11.47;78.93;99951.09;10382008;28;20041;-67
2022/11/24 10:32:04;;;;;;;10.48;0.95;;;;;;;11.49;78.86;99956.25;10384408;28;20081;-67
2022/11/24 10:37:39;;;;;;;8.95;1.17;;;;;;;11.53;78.23;99965.59;10382810;28;20124;-66
2022/11/24 10:42:41;;;;;;;9.30;0.80;;;;;;;11.60;78.55;99966.50;10385605;28;20141;-66
2022/11/24 10:47:44;;;;;;;11.25;1.95;;;;;;;11.64;78.07;99967.78;10383850;28;20129;-66
2022/11/24 10:53:21;;;;;;;4.32;0.63;;;;;;;11.65;77.86;99965.94;10367973;28;20049;-65
2022/11/24 10:58:37;;;;;;;5.65;0.80;;;;;;;11.77;78.02;99971.63;10364779;28;20046;-66
2022/11/24 11:03:48;;;;;;;10.35;0.80;;;;;;;11.92;77.13;99969.72;10386489;28;20045;-66
2022/11/24 11:09:09;;;;;;;7.47;0.80;;;;;;;11.85;77.65;99975.03;10388218;28;20140;-66
2022/11/24 11:14:11;;;;;;;5.95;2.15;;;;;;;11.90;77.43;99985.25;10381584;28;20077;-66
2022/11/24 11:19:42;;;;;;;9.05;0.63;;;;;;;12.00;76.83;99982.22;10383546;28;20060;-66
2022/11/24 11:25:28;;;;;;;10.13;0.75;;;;;;;11.90;76.98;99987.94;10409302;28;20076;-66
2022/11/24 11:30:29;;;;;;;11.40;1.10;;;;;;;11.92;77.14;99993.97;10432479;28;20499;-66
2022/11/24 11:35:51;;;;;;;6.93;0.60;;;;;;;12.08;76.50;99998.25;10410318;28;20053;-65
2022/11/24 11:40:53;;;;;;;7.45;1.88;;;;;;;12.17;76.06;99994.41;10421054;28;20147;-66
2022/11/24 11:46:16;;;;;;;10.93;0.85;;;;;;;12.40;75.50;99998.69;10427472;28;20073;-65
2022/11/24 11:51:45;;;;;;;8.48;0.40;;;;;;;12.49;75.67;100000.22;10429386;28;20057;-66
2022/11/24 11:56:55;;;;;;;12.00;1.20;;;;;;;12.64;74.81;99994.72;10427879;28;20044;-66
2022/11/24 12:02:06;;;;;;;6.05;0.82;;;;;;;12.65;74.69;99999.91;10424744;28;20140;-66
2022/11/24 12:07:24;;;;;;;5.78;0.57;;;;;;;12.74;73.92;100013.22;10425900;28;20087;-66
2022/11/24 12:12:47;;;;;;;8.88;0.82;;;;;;;12.76;73.38;100020.09;10428605;28;20081;-65
2022/11/24 12:18:26;;;;;;;10.65;1.38;;;;;;;12.79;73.39;100022.41;10422801;28;20128;-65
2022/11/24 12:24:09;;;;;;;5.53;0.90;;;;;;;12.71;73.50;100027.94;10423578;28;20053;-66
2022/11/24 12:29:22;;;;;;;7.47;0.40;;;;;;;12.77;72.76;100029.84;10419723;28;20148;-65
2022/11/24 12:34:27;;;;;;;6.10;0.95;;;;;;;12.95;71.95;100031.19;10426761;28;20069;-66
2022/11/24 12:39:48;;;;;;;7.10;0.65;;;;;;;13.08;72.18;100029.41;10428611;28;20116;-66
2022/11/24 12:45:07;;;;;;;5.03;0.70;;;;;;;13.10;71.62;100034.59;10425825;28;20132;-65
2022/11/24 12:50:14;;;;;;;8.75;1.38;;;;;;;13.26;71.30;100026.16;10430808;28;20052;-66
2022/11/24 12:55:19;;;;;;;4.13;0.30;;;;;;;13.27;71.86;100035.94;10429389;28;20506;-66
2022/11/24 13:00:27;;;;;;;9.02;0.80;;;;;;;13.10;70.97;100038.13;10433532;28;20073;-66
2022/11/24 13:05:57;;;;;;;7.07;0.30;;;;;;;12.95;70.10;100042.81;10436755;28;20143;-66
2022/11/24 13:11:33;;;;;;;2.38;0.45;;;;;;;12.87;70.18;100035.75;10435890;28;20084;-65
2022/11/24 13:16:48;;;;;;;8.60;0.40;;;;;;;12.94;69.57;100038.47;10427641;28;21008;-66
2022/11/24 13:22:15;;;;;;;2.92;0.52;;;;;;;13.12;69.26;100043.34;10429089;28;20056;-66
2022/11/24 13:27:23;;;;;;;3.60;0.88;;;;;;;13.08;69.06;100050.16;10431099;28;20132;-66
2022/11/24 13:32:30;;;;;;;3.25;0.57;;;;;;;13.13;68.56;100053.09;10429376;28;20053;-65
2022/11/24 13:37:31;;;;;;;;;;;;;;;13.27;70.88;100065.63;10432316;28;20161;-65
2022/11/24 13:43:11;;;;;;;6.25;0.85;;;;;;;13.15;69.58;100072.63;10429471;28;20416;-65
2022/11/24 13:48:19;;;;;;;6.57;0.35;;;;;;;13.09;68.93;100074.25;10426523;28;20128;-65
2022/11/24 13:53:40;;;;;;;3.55;0.35;;;;;;;13.13;68.95;100074.69;10426265;28;20049;-65
2022/11/24 13:58:49;;;;;;;8.02;0.50;;;;;;;13.10;68.57;100072.38;10428708;28;20084;-66
2022/11/24 14:03:56;;;;;;;4.18;0.57;;;;;;;13.18;68.65;100074.09;10428930;28;20216;-66
2022/11/24 14:09:34;;;;;;;12.18;1.00;;;;;;;13.39;68.47;100070.47;10427401;28;20111;-66
2022/11/24 14:14:35;;;;;;;9.60;0.80;;;;;;;13.34;69.13;100065.69;10433046;28;20068;-65
2022/11/24 14:19:38;;;;;;;11.57;0.50;;;;;;;13.27;68.85;100065.63;10430351;28;20124;-65
2022/11/24 14:24:43;;;;;;;4.43;0.38;;;;;;;13.16;68.61;100052.69;10428108;28;20132;-66
2022/11/24 14:30:00;;;;;;;8.30;0.90;;;;;;;13.09;68.49;100065.31;10422058;28;20059;-66
2022/11/24 14:35:21;;;;;;;4.95;0.47;;;;;;;13.03;68.31;100077.75;10423167;28;20053;-65
2022/11/24 14:40:43;;;;;;;13.00;0.60;;;;;;;13.06;68.11;100082.75;10429296;28;20127;-65
2022/11/24 14:45:56;;;;;;;6.18;0.70;;;;;;;13.05;67.71;100074.84;10425261;28;20568;-64
2022/11/24 14:51:11;;;;;;;7.40;0.68;;;;;;;13.09;68.06;100078.81;10434909;28;20128;-61
2022/11/24 14:56:31;;;;;;;4.80;0.52;;;;;;;13.10;67.50;100070.50;10438937;28;20057;-62
2022/11/24 15:01:33;;;;;;;7.97;0.70;;;;;;;13.07;67.58;100084.41;10437564;28;20057;-62
2022/11/24 15:06:35;;;;;;;2.78;0.40;;;;;;;12.94;67.49;100078.13;10431487;28;20045;-62
2022/11/24 15:11:37;;;;;;;4.90;0.52;;;;;;;12.93;67.78;100092.63;10425144;28;20049;-61
2022/11/24 15:16:38;;;;;;;7.47;1.05;;;;;;;12.82;67.59;100091.31;10436237;28;20068;-62
2022/11/24 15:21:40;;;;;;;8.18;0.82;;;;;;;12.67;67.75;100097.63;10442463;28;20736;-64
2022/11/24 15:26:42;;;;;;;4.07;0.90;;;;;;;12.61;67.67;100094.88;10393014;28;20595;-65
2022/11/24 15:31:43;;;;;;;6.35;0.88;;;;;;;12.55;67.19;100109.97;10382456;28;20092;-65
2022/11/24 15:36:52;;;;;;;5.68;0.50;;;;;;;12.35;67.34;100112.50;10388574;28;20050;-65
2022/11/24 15:41:54;;;;;;;3.80;0.47;;;;;;;12.21;67.90;100116.94;10382055;28;20129;-65
2022/11/24 15:46:55;;;;;;;4.32;0.70;;;;;;;12.06;67.88;100122.38;10385680;28;20131;-66
2022/11/24 15:51:57;;;;;;;7.55;1.50;;;;;;;11.95;67.57;100135.50;10389165;28;20076;-66
2022/11/24 15:56:58;;;;;;;6.85;0.77;;;;;;;11.82;67.65;100133.47;10386816;28;20105;-67
2022/11/24 16:01:59;;;;;;;10.50;1.23;;;;;;;11.69;68.01;100148.47;10369580;28;20056;-67
2022/11/24 16:07:02;;;;;;;11.52;1.58;;;;;;;11.59;68.51;100153.31;10383431;28;20563;-65
2022/11/24 16:12:05;;;;;;;8.10;1.30;;;;;;;11.48;68.28;100145.69;10385504;28;20077;-67
2022/11/24 16:17:06;;;;;;;10.68;1.42;;;;;;;11.45;68.39;100154.13;10388975;28;20076;-67
2022/11/24 16:22:08;;;;;;;14.50;2.22;;;;;;;11.42;68.71;100154.53;10388301;28;20136;-71
2022/11/24 16:27:09;;;;;;;8.43;1.42;;;;;;;11.36;68.61;100155.28;10431570;28;20465;-69
2022/11/24 16:32:11;;;;;;;7.03;1.23;;;;;;;11.26;68.70;100166.31;10432894;28;20057;-70
2022/11/24 16:37:12;;;;;;;7.57;1.23;;;;;;;11.16;68.98;100171.09;10434188;28;20548;-67
2022/11/24 16:42:14;;;;;;;8.35;1.00;;;;;;;11.06;69.05;100174.09;10421652;28;20426;-66
2022/11/24 16:47:15;;;;;;;9.25;1.80;;;;;;;11.05;69.33;100175.94;10418711;28;20152;-67
2022/11/24 16:52:17;;;;;;;10.13;2.00;;;;;;;10.96;68.95;100181.56;10430205;28;20132;-66
2022/11/24 16:57:18;;;;;;;11.48;2.30;;;;;;;10.90;69.20;100177.78;10433631;28;20084;-67
2022/11/24 17:02:20;;;;;;;55.38;10.57;;;;;;;10.79;69.67;100170.16;10416920;28;20076;-66
2022/11/24 17:07:21;;;;;;;50.78;12.95;;;;;;;10.64;69.63;100173.63;10431430;28;20057;-67
2022/11/24 17:12:22;;;;;;;79.93;17.45;;;;;;;10.51;69.97;100184.16;10428065;28;20061;-66
2022/11/24 17:17:24;;;;;;;24.02;3.97;;;;;;;10.23;70.42;100187.34;10410108;28;20049;-65
2022/11/24 17:22:26;;;;;;;13.50;2.83;;;;;;;10.11;70.62;100183.34;10430208;28;20132;-66
2022/11/24 17:27:28;;;;;;;11.07;2.40;;;;;;;9.95;71.11;100189.66;10430337;28;20046;-66
2022/11/24 17:32:30;;;;;;;11.60;3.03;;;;;;;9.94;71.35;100190.69;10432662;28;20091;-67
2022/11/24 17:37:31;;;;;;;12.65;3.38;;;;;;;9.92;71.18;100196.22;10418067;28;20132;-66
2022/11/24 17:42:33;;;;;;;14.35;3.72;;;;;;;9.87;71.47;100192.38;10427797;28;20076;-67
2022/11/24 17:47:34;;;;;;;11.93;3.25;;;;;;;9.84;71.32;100206.19;10431402;28;20136;-68
2022/11/24 17:52:36;;;;;;;14.93;3.15;;;;;;;9.77;71.63;100215.94;10428090;28;20073;-69
2022/11/24 17:57:37;;;;;;;17.17;5.43;;;;;;;9.72;71.69;100211.91;10428429;28;20461;-67
2022/11/24 18:02:38;;;;;;;16.63;3.13;;;;;;;9.65;71.67;100232.41;10433639;28;20072;-66
2022/11/24 18:07:40;;;;;;;13.80;3.28;;;;;;;9.60;72.00;100228.59;10429600;28;20049;-66
2022/11/24 18:12:41;;;;;;;18.85;2.38;;;;;;;9.56;72.17;100243.34;10435171;28;20045;-66
2022/11/24 18:17:43;;;;;;;22.52;3.00;;;;;;;9.55;72.01;100234.44;10430079;28;20579;-68
2022/11/24 18:22:44;;;;;;;10.35;2.60;;;;;;;9.47;72.05;100235.31;10437248;28;20076;-65
2022/11/24 18:28:05;;;;;;;14.55;3.20;;;;;;;9.36;71.84;100242.88;10431267;28;20045;-68
2022/11/24 18:33:07;;;;;;;8.98;3.90;;;;;;;9.26;72.03;100248.44;10430444;28;20072;-67
2022/11/24 18:38:09;;;;;;;14.32;6.07;;;;;;;9.15;72.06;100252.31;10431553;28;20617;-66
2022/11/24 18:43:10;;;;;;;14.07;5.13;;;;;;;9.09;72.15;100243.09;10412711;28;20076;-65
2022/11/24 18:48:13;;;;;;;10.57;4.53;;;;;;;9.04;71.99;100247.28;10428398;28;20061;-66
2022/11/24 18:53:14;;;;;;;12.60;5.32;;;;;;;8.98;72.59;100243.44;10434455;28;20080;-67
2022/11/24 18:58:15;;;;;;;14.43;4.63;;;;;;;8.99;72.19;100242.44;10419163;28;20081;-68
2022/11/24 19:03:17;;;;;;;16.08;7.55;;;;;;;8.89;72.47;100231.88;10423570;28;20080;-65
2022/11/24 19:08:18;;;;;;;21.13;9.95;;;;;;;8.82;72.75;100240.75;10413119;28;20088;-68
2022/11/24 19:13:20;;;;;;;25.67;11.65;;;;;;;8.81;72.72;100245.28;10432404;28;20516;-67
2022/11/24 19:18:21;;;;;;;30.17;15.57;;;;;;;8.79;72.85;100235.72;10422430;28;20052;-67
2022/11/24 19:23:23;;;;;;;19.77;8.00;;;;;;;8.68;72.86;100231.53;10429954;28;20175;-67
2022/11/24 19:28:24;;;;;;;26.00;12.93;;;;;;;8.64;72.51;100232.88;10428334;28;20152;-67
2022/11/24 19:33:28;;;;;;;39.08;18.52;;;;;;;8.61;72.85;100235.88;10429364;28;20132;-66
2022/11/24 19:38:31;;;;;;;21.77;10.57;;;;;;;8.50;72.77;100235.19;10435454;28;20068;-64
2022/11/24 19:43:33;;;;;;;21.70;8.65;;;;;;;8.42;73.09;100229.84;10435795;28;20080;-65
2022/11/24 19:48:47;;;;;;;28.60;12.55;;;;;;;8.32;72.80;100234.47;10415458;28;20081;-64
2022/11/24 19:53:48;;;;;;;26.20;11.35;;;;;;;8.29;72.84;100242.81;10437944;28;20072;-67
2022/11/24 19:58:51;;;;;;;26.60;9.18;;;;;;;8.19;73.07;100234.09;10439767;28;20140;-67
2022/11/24 20:03:59;;;;;;;18.83;8.40;;;;;;;8.11;73.50;100232.25;10433096;28;20081;-68
2022/11/24 20:09:04;;;;;;;24.85;12.68;;;;;;;8.08;73.74;100241.44;10441527;28;20045;-67
2022/11/24 20:14:07;;;;;;;33.17;14.10;;;;;;;7.97;73.68;100236.38;10441456;28;20559;-66
2022/11/24 20:19:13;;;;;;;31.38;11.35;;;;;;;7.91;73.58;100240.53;10432725;28;20076;-67
2022/11/24 20:24:20;;;;;;;27.58;12.15;;;;;;;7.85;73.60;100246.53;10431719;28;20065;-67
2022/11/24 20:29:21;;;;;;;26.77;13.02;;;;;;;7.77;74.15;100249.19;10434199;28;20076;-66
2022/11/24 20:34:23;;;;;;;36.05;17.48;;;;;;;7.71;73.85;100245.31;10426827;28;20072;-66
2022/11/24 20:39:26;;;;;;;21.10;9.23;;;;;;;7.64;73.78;100254.13;10422946;28;20149;-67
2022/11/24 20:44:28;;;;;;;25.35;10.35;;;;;;;7.59;73.53;100259.13;10430466;28;20084;-67
2022/11/24 20:49:30;;;;;;;15.75;6.63;;;;;;;7.60;73.87;100256.28;10431835;28;22370;-67
2022/11/24 20:54:31;;;;;;;14.60;5.68;;;;;;;7.52;74.40;100259.78;10409801;28;20397;-67
2022/11/24 20:59:34;;;;;;;20.00;8.55;;;;;;;7.55;73.74;100255.94;10419397;28;20037;-67
2022/11/24 21:04:35;;;;;;;29.98;14.98;;;;;;;7.59;73.85;100243.09;10439674;28;20059;-67
2022/11/24 21:09:40;;;;;;;25.48;12.38;;;;;;;7.62;74.49;100246.28;10426714;28;20055;-67
2022/11/24 21:14:42;;;;;;;27.52;11.80;;;;;;;7.53;74.40;100245.38;10445092;28;20451;-65
2022/11/24 21:19:43;;;;;;;20.88;8.57;;;;;;;7.45;74.72;100249.84;10410322;28;20093;-66
2022/11/24 21:24:45;;;;;;;17.95;8.93;;;;;;;7.29;75.17;100250.59;10450598;28;20477;-66
2022/11/24 21:29:46;;;;;;;22.70;8.88;;;;;;;7.44;74.83;100256.19;10426226;28;20095;-66
2022/11/24 21:34:48;;;;;;;18.17;7.15;;;;;;;7.60;74.78;100266.97;10439491;28;20080;-66
2022/11/24 21:39:49;;;;;;;12.35;7.00;;;;;;;7.70;74.67;100266.84;10429569;28;20112;-65
2022/11/24 21:44:51;;;;;;;22.33;6.60;;;;;;;7.73;74.02;100259.34;10412734;28;20052;-65
2022/11/24 21:49:53;;;;;;;17.45;8.27;;;;;;;7.74;74.08;100254.84;10408122;28;20053;-67
2022/11/24 21:54:55;;;;;;;18.95;8.60;;;;;;;7.71;73.90;100268.56;10410516;28;20102;-67
2022/11/24 21:59:59;;;;;;;13.27;9.48;;;;;;;7.69;73.99;100266.03;10426565;28;20046;-65
2022/11/24 22:05:01;;;;;;;21.45;11.95;;;;;;;7.65;74.00;100267.34;10412368;28;20144;-67
2022/11/24 22:10:03;;;;;;;23.02;11.48;;;;;;;7.72;74.35;100257.69;10430561;28;20060;-66
2022/11/24 22:15:05;;;;;;;19.23;11.38;;;;;;;7.74;74.21;100260.19;10439933;28;20115;-66
2022/11/24 22:20:07;;;;;;;19.88;10.75;;;;;;;7.69;74.54;100254.50;10421289;28;20133;-64
2022/11/24 22:25:08;;;;;;;18.55;9.98;;;;;;;7.72;74.07;100259.50;10436407;28;20052;-67
2022/11/24 22:30:10;;;;;;;21.33;10.18;;;;;;;7.69;74.74;100254.50;10439903;28;20057;-67
2022/11/24 22:35:11;;;;;;;20.45;10.35;;;;;;;7.62;74.72;100245.41;10442687;28;20107;-67
2022/11/24 22:40:13;;;;;;;21.38;9.93;;;;;;;7.53;74.53;100263.28;10438186;28;20048;-67
2022/11/24 22:45:15;;;;;;;23.58;10.35;;;;;;;7.48;74.40;100252.19;10439241;28;20724;-67
2022/11/24 22:50:16;;;;;;;23.08;10.27;;;;;;;7.36;74.02;100243.59;10420764;28;20060;-66
2022/11/24 22:55:18;;;;;;;19.13;8.55;;;;;;;7.29;74.12;100247.94;10437722;28;20057;-67
2022/11/24 23:00:19;;;;;;;21.17;8.52;;;;;;;7.21;74.05;100246.03;10436689;28;20091;-66
2022/11/24 23:05:21;;;;;;;19.55;7.88;;;;;;;7.14;73.68;100256.50;10431994;28;20551;-66
2022/11/24 23:10:22;;;;;;;22.98;8.10;;;;;;;7.06;74.87;100250.25;10433348;28;20076;-67
2022/11/24 23:15:24;;;;;;;19.23;8.15;;;;;;;6.97;74.80;100244.03;10418362;28;20077;-67
2022/11/24 23:20:25;;;;;;;18.42;8.48;;;;;;;6.85;74.89;100254.13;10432774;28;20665;-66
2022/11/24 23:25:26;;;;;;;20.20;8.35;;;;;;;6.79;74.10;100257.38;10426677;28;20049;-63
2022/11/24 23:30:28;;;;;;;20.05;8.13;;;;;;;6.69;74.36;100259.31;10434194;28;20072;-64
2022/11/24 23:35:29;;;;;;;15.00;7.50;;;;;;;6.61;74.10;100256.56;10433756;28;20781;-64
2022/11/24 23:40:30;;;;;;;19.67;7.45;;;;;;;6.49;74.14;100264.78;10424884;28;20116;-63
2022/11/24 23:45:32;;;;;;;16.85;7.80;;;;;;;6.38;74.17;100266.84;10433061;28;20076;-64